Time;durP1;ratioP1;P1;durP2;ratioP2;P2;SDS_P1;SDS_P2;PMS_P1;PMS_P2;Temp;Humidity;BMP_temperature;BMP_pressure;BME280_temperature;BME280_humidity;BME280_pressure;Samples;Min_cycle;Max_cycle;Signal;HPM_P1;HPM_P2
2021/08/04 00:00:19;;;;;;;8.90;4.40;;;;;;;12.99;100.00;96000.72;1020232;29;20051;-51
2021/08/04 00:00:49;;;;;;;13.30;4.25;;;;;;;12.97;100.00;96002.66;1019939;29;20546;-51
2021/08/04 00:01:20;;;;;;;7.82;4.03;;;;;;;12.96;100.00;95995.69;1016212;29;20111;-51
2021/08/04 00:01:50;;;;;;;7.93;4.68;;;;;;;12.98;100.00;96004.31;1020042;29;20463;-51
2021/08/04 00:02:21;;;;;;;8.85;4.45;;;;;;;12.94;100.00;95999.44;1020420;29;20031;-52
2021/08/04 00:02:52;;;;;;;8.98;4.60;;;;;;;12.97;100.00;96002.66;1023961;29;20025;-51
2021/08/04 00:03:22;;;;;;;8.20;4.15;;;;;;;13.00;100.00;96007.66;1023972;29;20026;-52
2021/08/04 00:03:53;;;;;;;8.15;4.35;;;;;;;12.99;100.00;95994.66;1023471;29;20019;-52
2021/08/04 00:04:24;;;;;;;8.65;4.47;;;;;;;13.01;100.00;96001.44;1020384;28;20016;-51
2021/08/04 00:04:54;;;;;;;7.15;4.03;;;;;;;12.95;100.00;96004.56;1020083;29;20020;-52
2021/08/04 00:05:25;;;;;;;10.05;4.30;;;;;;;12.98;100.00;95998.22;1020003;29;20023;-51
2021/08/04 00:05:56;;;;;;;5.75;4.13;;;;;;;13.00;100.00;96005.03;1020053;29;20020;-51
2021/08/04 00:06:26;;;;;;;7.95;4.45;;;;;;;12.97;100.00;96005.28;1016150;29;20027;-53
2021/08/04 00:06:57;;;;;;;9.43;4.43;;;;;;;12.99;100.00;95998.09;1016593;29;20055;-51
2021/08/04 00:07:27;;;;;;;6.43;4.20;;;;;;;12.94;100.00;96000.25;1023993;28;20131;-50
2021/08/04 00:07:58;;;;;;;7.68;4.97;;;;;;;12.97;100.00;96001.78;1024085;28;20098;-51
2021/08/04 00:08:29;;;;;;;8.40;5.00;;;;;;;12.99;100.00;95999.91;1020076;29;20509;-51
2021/08/04 00:08:59;;;;;;;9.00;4.90;;;;;;;13.00;100.00;96001.56;1020264;28;20546;-52
2021/08/04 00:09:30;;;;;;;9.65;4.75;;;;;;;13.01;100.00;96004.06;1023886;29;20062;-51
2021/08/04 00:10:00;;;;;;;8.07;4.75;;;;;;;13.02;100.00;95999.66;1024111;28;20101;-51
2021/08/04 00:10:31;;;;;;;7.65;4.57;;;;;;;13.04;100.00;96002.97;1023947;29;20022;-51
2021/08/04 00:11:01;;;;;;;6.35;4.10;;;;;;;13.05;100.00;95998.59;1024075;28;20131;-51
2021/08/04 00:11:32;;;;;;;6.78;4.10;;;;;;;13.05;100.00;96001.22;1019633;29;20032;-51
2021/08/04 00:12:03;;;;;;;11.82;4.63;;;;;;;13.07;100.00;96007.19;1016017;29;20115;-52
2021/08/04 00:12:34;;;;;;;7.07;4.00;;;;;;;13.02;100.00;96010.16;1012156;29;20025;-50
2021/08/04 00:13:04;;;;;;;5.72;4.38;;;;;;;13.05;100.00;96007.31;1016112;29;20198;-52
2021/08/04 00:13:35;;;;;;;6.95;3.97;;;;;;;13.04;100.00;96010.88;1019777;29;20078;-51
2021/08/04 00:14:06;;;;;;;6.93;4.43;;;;;;;13.05;100.00;96011.72;1024061;28;20450;-52
2021/08/04 00:14:39;;;;;;;8.88;4.63;;;;;;;13.05;100.00;96009.09;1027394;28;20624;-51
2021/08/04 00:15:11;;;;;;;7.97;4.32;;;;;;;13.04;100.00;96016.13;1024026;29;20027;-52
2021/08/04 00:15:41;;;;;;;8.50;4.63;;;;;;;12.98;100.00;96014.81;1023980;29;20023;-52
2021/08/04 00:16:12;;;;;;;6.93;4.63;;;;;;;13.02;100.00;96012.78;1016240;29;20036;-52
2021/08/04 00:16:42;;;;;;;6.65;4.78;;;;;;;13.03;100.00;96015.31;1016038;29;20531;-51
2021/08/04 00:17:13;;;;;;;6.95;4.50;;;;;;;13.03;100.00;96017.13;1016131;29;20435;-52
2021/08/04 00:17:44;;;;;;;8.65;4.65;;;;;;;13.04;100.00;96016.13;1015960;29;20124;-52
2021/08/04 00:18:14;;;;;;;6.53;4.35;;;;;;;13.05;100.00;96011.72;1016552;28;20016;-51
2021/08/04 00:18:45;;;;;;;7.18;4.57;;;;;;;13.02;100.00;96016.25;1024071;29;20027;-52
2021/08/04 00:19:16;;;;;;;12.73;4.95;;;;;;;13.04;100.00;96013.50;1015914;29;20036;-51
2021/08/04 00:19:46;;;;;;;6.15;4.40;;;;;;;13.00;100.00;96012.09;1015322;29;20120;-51
2021/08/04 00:20:17;;;;;;;9.88;4.60;;;;;;;12.99;100.00;96016.50;1020034;29;20028;-52
2021/08/04 00:20:48;;;;;;;8.27;4.75;;;;;;;13.01;100.00;96021.66;1020042;29;20625;-52
2021/08/04 00:21:18;;;;;;;6.43;4.75;;;;;;;13.00;100.00;96020.81;1024048;29;20102;-51
2021/08/04 00:21:49;;;;;;;7.53;4.82;;;;;;;12.97;100.00;96025.47;1019848;29;20032;-52
2021/08/04 00:22:19;;;;;;;7.53;4.70;;;;;;;12.96;100.00;96029.06;1020259;29;20034;-51
2021/08/04 00:22:50;;;;;;;5.90;4.63;;;;;;;12.94;100.00;96026.56;1016140;29;20110;-51
2021/08/04 00:23:21;;;;;;;11.90;4.63;;;;;;;12.97;100.00;96028.94;1016256;29;20070;-51
2021/08/04 00:23:51;;;;;;;6.82;4.40;;;;;;;13.00;100.00;96025.22;1015255;29;20430;-51
2021/08/04 00:24:22;;;;;;;7.40;4.90;;;;;;;12.99;100.00;96024.41;1012243;29;20515;-51
2021/08/04 00:24:53;;;;;;;8.38;4.68;;;;;;;13.02;100.00;96032.03;1016074;29;20058;-51
2021/08/04 00:25:23;;;;;;;6.60;4.68;;;;;;;13.00;100.00;96028.69;1008624;29;20032;-51
2021/08/04 00:25:54;;;;;;;7.72;4.70;;;;;;;12.96;100.00;96026.44;1016178;29;20032;-51
2021/08/04 00:26:25;;;;;;;7.38;4.65;;;;;;;12.99;100.00;96031.47;1020143;29;20611;-51
2021/08/04 00:26:56;;;;;;;13.27;4.90;;;;;;;12.97;100.00;96035.97;1012312;29;20034;-50
2021/08/04 00:27:27;;;;;;;8.73;4.90;;;;;;;12.97;100.00;96035.97;1012385;29;20432;-51
2021/08/04 00:27:58;;;;;;;8.90;5.00;;;;;;;12.97;100.00;96034.22;1015897;29;20024;-51
2021/08/04 00:28:28;;;;;;;8.38;5.10;;;;;;;12.99;100.00;96034.94;1016822;28;20024;-50
2021/08/04 00:28:59;;;;;;;10.73;5.32;;;;;;;12.98;100.00;96030.59;1024298;28;20019;-52
2021/08/04 00:29:30;;;;;;;10.85;4.97;;;;;;;12.99;100.00;96037.56;1023974;28;20102;-51
2021/08/04 00:30:01;;;;;;;8.98;5.60;;;;;;;13.01;100.00;96030.38;1015966;29;20035;-51
2021/08/04 00:30:31;;;;;;;7.22;5.20;;;;;;;13.01;100.00;96033.00;1016099;29;20025;-51
2021/08/04 00:31:02;;;;;;;8.30;5.30;;;;;;;13.03;100.00;96031.09;1020236;29;20086;-50
2021/08/04 00:31:33;;;;;;;11.27;5.13;;;;;;;13.06;100.00;96026.53;1023932;29;20054;-51
2021/08/04 00:32:04;;;;;;;10.95;5.75;;;;;;;13.06;100.00;96030.00;1020039;29;20106;-51
2021/08/04 00:32:34;;;;;;;10.13;5.57;;;;;;;13.04;100.00;96026.66;1011943;29;20563;-50
2021/08/04 00:33:05;;;;;;;9.73;5.03;;;;;;;13.01;100.00;96025.13;1019918;29;20108;-51
2021/08/04 00:33:35;;;;;;;7.65;5.70;;;;;;;13.02;100.00;96025.94;1019484;29;20513;-50
2021/08/04 00:34:06;;;;;;;8.55;5.15;;;;;;;13.03;100.00;96025.81;1015695;29;20103;-51
2021/08/04 00:34:37;;;;;;;10.88;6.15;;;;;;;13.01;100.00;96029.56;1016117;29;20498;-52
2021/08/04 00:35:08;;;;;;;7.38;5.60;;;;;;;13.02;100.00;96032.03;1019939;29;20059;-52
2021/08/04 00:35:39;;;;;;;11.90;5.15;;;;;;;13.00;100.00;96033.94;1016175;29;20087;-50
2021/08/04 00:36:09;;;;;;;14.80;5.65;;;;;;;12.99;100.00;96031.47;1020261;29;20075;-51
2021/08/04 00:36:40;;;;;;;11.95;5.80;;;;;;;13.01;100.00;96034.81;1023857;28;20038;-52
2021/08/04 00:37:10;;;;;;;11.68;5.40;;;;;;;12.99;100.00;96037.56;1027929;28;20044;-52
2021/08/04 00:37:41;;;;;;;11.13;5.40;;;;;;;13.03;100.00;96035.53;1024039;29;20070;-50
2021/08/04 00:38:12;;;;;;;8.20;5.63;;;;;;;13.04;100.00;96037.19;1019967;29;20140;-51
2021/08/04 00:38:43;;;;;;;7.57;5.60;;;;;;;13.03;100.00;96033.72;1019897;29;20016;-51
2021/08/04 00:39:15;;;;;;;12.57;5.32;;;;;;;13.02;100.00;96034.66;1016304;29;20028;-51
2021/08/04 00:39:45;;;;;;;9.38;5.13;;;;;;;13.04;100.00;96034.56;1019854;29;20055;-51
2021/08/04 00:40:16;;;;;;;10.30;5.85;;;;;;;13.08;100.00;96038.59;1020023;29;20063;-51
2021/08/04 00:40:47;;;;;;;7.90;6.00;;;;;;;13.07;100.00;96036.13;1019708;29;20118;-51
2021/08/04 00:41:17;;;;;;;7.82;5.30;;;;;;;13.06;100.00;96030.00;1020010;29;20195;-51
2021/08/04 00:41:49;;;;;;;8.80;5.22;;;;;;;13.04;100.00;96037.19;1012143;29;20607;-52
2021/08/04 00:42:19;;;;;;;8.23;5.70;;;;;;;13.01;100.00;96035.63;1012665;29;20559;-51
2021/08/04 00:42:50;;;;;;;7.45;5.03;;;;;;;13.03;100.00;96044.25;1020100;29;20079;-51
2021/08/04 00:43:22;;;;;;;8.48;5.63;;;;;;;13.02;100.00;96045.19;1024410;28;20022;-51
2021/08/04 00:43:52;;;;;;;9.88;5.97;;;;;;;13.00;100.00;96043.66;1023216;29;20485;-52
2021/08/04 00:44:23;;;;;;;11.93;5.43;;;;;;;13.01;100.00;96045.34;1019747;29;20024;-51
2021/08/04 00:44:54;;;;;;;10.05;5.50;;;;;;;12.95;100.00;96037.91;1023744;29;20023;-49
2021/08/04 00:45:25;;;;;;;9.70;5.22;;;;;;;12.95;100.00;96043.16;1027865;28;20065;-51
2021/08/04 00:45:55;;;;;;;8.82;5.28;;;;;;;12.94;100.00;96034.44;1023866;29;20749;-51
2021/08/04 00:46:26;;;;;;;11.30;5.60;;;;;;;12.97;100.00;96041.25;1019885;29;20439;-51
2021/08/04 00:46:57;;;;;;;7.07;5.45;;;;;;;13.00;100.00;96041.00;1019605;29;20024;-50
2021/08/04 00:47:28;;;;;;;11.85;5.90;;;;;;;12.97;100.00;96035.97;1019761;28;20024;-50
2021/08/04 00:47:59;;;;;;;12.73;6.30;;;;;;;12.95;100.00;96046.66;1016230;29;20122;-52
2021/08/04 00:48:29;;;;;;;8.85;5.43;;;;;;;12.96;100.00;96047.47;1019963;29;20426;-51
2021/08/04 00:49:00;;;;;;;7.25;5.40;;;;;;;12.97;100.00;96044.72;1019729;29;20023;-51
2021/08/04 00:49:30;;;;;;;8.70;5.35;;;;;;;12.97;100.00;96039.47;1023777;29;20082;-51
2021/08/04 00:50:01;;;;;;;8.82;5.32;;;;;;;12.97;100.00;96038.63;1019897;29;20420;-52
2021/08/04 00:50:33;;;;;;;10.20;5.07;;;;;;;12.96;100.00;96043.03;1015891;29;20031;-51
2021/08/04 00:51:04;;;;;;;14.73;5.53;;;;;;;12.96;100.00;96043.03;1016039;29;20536;-51
2021/08/04 00:51:34;;;;;;;9.50;5.32;;;;;;;12.97;100.00;96042.09;1019934;29;20039;-52
2021/08/04 00:52:05;;;;;;;8.88;5.65;;;;;;;12.97;100.00;96039.47;1020233;29;20409;-51
2021/08/04 00:52:36;;;;;;;9.63;5.90;;;;;;;12.93;100.00;96043.31;1023567;28;20592;-51
2021/08/04 00:53:27;;;;;;;10.75;5.38;;;;;;;12.94;100.00;96038.88;1015873;29;20034;-52
2021/08/04 00:53:58;;;;;;;8.52;5.97;;;;;;;12.95;100.00;96037.91;1015488;29;20024;-51
2021/08/04 00:54:29;;;;;;;12.35;5.60;;;;;;;12.96;100.00;96043.03;1019894;29;20028;-52
2021/08/04 00:54:59;;;;;;;8.20;5.90;;;;;;;12.92;100.00;96039.00;1022718;29;20118;-52
2021/08/04 00:55:30;;;;;;;9.75;5.78;;;;;;;12.97;100.00;96038.63;1019864;29;20040;-50
2021/08/04 00:56:00;;;;;;;9.50;5.80;;;;;;;13.00;100.00;96035.75;1023997;28;20030;-52
2021/08/04 00:56:31;;;;;;;9.50;4.72;;;;;;;13.00;100.00;96043.66;1019842;29;20468;-52
2021/08/04 00:57:03;;;;;;;15.35;5.82;;;;;;;13.00;100.00;96039.22;1019886;29;20020;-51
2021/08/04 00:57:33;;;;;;;13.45;5.30;;;;;;;13.01;100.00;96029.56;1019806;29;20050;-51
2021/08/04 00:58:04;;;;;;;7.63;5.10;;;;;;;13.01;100.00;96040.91;1019850;29;20470;-51
2021/08/04 00:58:37;;;;;;;9.95;5.47;;;;;;;13.00;100.00;96041.84;1015849;29;20547;-51
2021/08/04 00:59:08;;;;;;;10.10;5.78;;;;;;;12.93;100.00;96038.03;1015894;29;20103;-51
2021/08/04 00:59:38;;;;;;;7.32;5.25;;;;;;;12.97;100.00;96033.34;1015785;29;20020;-50
2021/08/04 01:00:10;;;;;;;7.45;5.18;;;;;;;13.00;100.00;96033.94;1015975;29;20116;-51
2021/08/04 01:00:42;;;;;;;9.40;4.85;;;;;;;13.03;100.00;96035.53;1015822;29;20436;-51
2021/08/04 01:01:19;;;;;;;7.30;5.22;;;;;;;13.03;100.00;96027.63;1015983;29;20106;-51
2021/08/04 01:02:14;;;;;;;8.68;4.93;;;;;;;13.03;100.00;96031.09;1019703;29;20031;-51
2021/08/04 01:03:01;;;;;;;8.43;5.03;;;;;;;13.02;100.00;96032.03;1016269;29;20110;-52
2021/08/04 01:03:36;;;;;;;8.73;5.70;;;;;;;13.01;100.00;96027.75;1022479;28;20024;-51
2021/08/04 01:04:09;;;;;;;13.68;5.57;;;;;;;12.98;100.00;96030.59;1027831;28;20038;-51
2021/08/04 01:04:50;;;;;;;9.68;5.80;;;;;;;12.99;100.00;96031.47;1031060;28;20028;-51
2021/08/04 01:05:25;;;;;;;5.97;4.72;;;;;;;12.97;100.00;96028.09;1029390;28;20026;-52
2021/08/04 01:05:57;;;;;;;8.55;5.30;;;;;;;12.98;100.00;96027.97;1019716;28;20032;-51
2021/08/04 01:06:51;;;;;;;9.15;5.22;;;;;;;12.99;100.00;96032.28;1015852;29;20028;-51
2021/08/04 01:07:25;;;;;;;10.55;5.07;;;;;;;12.96;100.00;96027.25;1019864;29;20031;-51
2021/08/04 01:08:05;;;;;;;12.65;5.53;;;;;;;12.95;100.00;96024.75;1023193;29;20519;-51
2021/08/04 01:08:37;;;;;;;10.45;6.65;;;;;;;12.95;100.00;96022.97;1023645;29;20022;-51
2021/08/04 01:09:08;;;;;;;8.93;5.85;;;;;;;12.96;100.00;96019.38;1019751;29;20023;-50
2021/08/04 01:09:49;;;;;;;9.23;5.32;;;;;;;12.98;100.00;96019.25;1015977;29;20684;-49
2021/08/04 01:10:27;;;;;;;9.35;5.40;;;;;;;12.96;100.00;96022.00;1017725;29;20533;-51
2021/08/04 01:10:57;;;;;;;9.00;5.18;;;;;;;12.93;100.00;96024.91;1022106;29;20059;-51
2021/08/04 01:11:34;;;;;;;8.63;5.38;;;;;;;12.93;100.00;96026.66;1023861;29;20078;-50
2021/08/04 01:12:05;;;;;;;12.23;5.47;;;;;;;12.93;100.00;96021.41;1019767;29;20023;-51
2021/08/04 01:12:41;;;;;;;8.02;5.55;;;;;;;12.94;100.00;96023.09;1019693;29;20034;-51
2021/08/04 01:13:14;;;;;;;9.80;5.50;;;;;;;12.90;100.00;96017.25;1021675;29;20485;-51
2021/08/04 01:13:47;;;;;;;8.88;5.10;;;;;;;12.89;100.00;96020.81;1016530;29;20023;-51
2021/08/04 01:14:20;;;;;;;9.98;5.32;;;;;;;12.90;100.00;96016.41;1021101;29;20387;-52
2021/08/04 01:14:53;;;;;;;8.35;5.35;;;;;;;12.88;100.00;96023.59;1019808;29;20024;-51
2021/08/04 01:15:24;;;;;;;7.95;5.07;;;;;;;12.87;100.00;96020.09;1017106;29;20031;-50
2021/08/04 01:16:19;;;;;;;8.45;4.90;;;;;;;12.87;100.00;96019.28;1020856;29;20554;-51
2021/08/04 01:16:49;;;;;;;9.27;5.50;;;;;;;12.84;100.00;96023.81;1019617;29;20038;-52
2021/08/04 01:17:20;;;;;;;9.13;5.15;;;;;;;12.88;100.00;96027.03;1023211;29;20121;-51
2021/08/04 01:17:51;;;;;;;10.23;5.03;;;;;;;12.87;100.00;96017.47;1023848;29;20035;-50
2021/08/04 01:18:26;;;;;;;9.55;5.38;;;;;;;12.88;100.00;96019.16;1015707;29;20027;-51
2021/08/04 01:19:37;;;;;;;7.55;4.88;;;;;;;12.86;100.00;96014.94;1019744;29;20055;-51
2021/08/04 01:20:11;;;;;;;8.75;5.57;;;;;;;12.79;100.00;96017.25;1023774;29;20023;-51
2021/08/04 01:20:41;;;;;;;8.07;4.53;;;;;;;12.81;100.00;96007.44;1025364;28;20042;-51
2021/08/04 01:21:12;;;;;;;7.80;4.97;;;;;;;12.81;100.00;96012.69;1023966;28;20094;-52
2021/08/04 01:22:03;;;;;;;11.60;6.00;;;;;;;12.81;100.00;96012.69;1012444;29;20522;-50
2021/08/04 01:22:58;;;;;;;8.38;4.90;;;;;;;12.82;100.00;96014.38;1015779;29;20020;-50
2021/08/04 01:23:34;;;;;;;7.93;4.55;;;;;;;12.79;100.00;96009.34;1023384;28;20020;-53
2021/08/04 01:24:07;;;;;;;11.07;4.30;;;;;;;12.77;100.00;96009.47;1027759;28;20082;-50
2021/08/04 01:24:41;;;;;;;10.35;4.70;;;;;;;12.80;100.00;96011.00;1027618;28;20406;-50
2021/08/04 01:25:14;;;;;;;6.68;4.60;;;;;;;12.79;100.00;96004.09;1023826;29;20055;-52
2021/08/04 01:25:50;;;;;;;7.63;4.72;;;;;;;12.77;100.00;96011.28;1015965;29;20022;-51
2021/08/04 01:26:28;;;;;;;10.15;4.72;;;;;;;12.77;100.00;96003.38;1015847;29;20643;-51
2021/08/04 01:26:59;;;;;;;8.55;4.20;;;;;;;12.76;100.00;96005.19;1019650;29;20115;-51
2021/08/04 01:27:30;;;;;;;7.38;4.53;;;;;;;12.72;100.00;96002.91;1011927;29;20028;-51
2021/08/04 01:28:37;;;;;;;9.73;4.82;;;;;;;12.74;100.00;96007.06;1015898;29;20032;-51
2021/08/04 01:29:07;;;;;;;8.48;4.70;;;;;;;12.73;100.00;96005.41;1018498;28;20024;-51
2021/08/04 01:29:38;;;;;;;7.53;4.38;;;;;;;12.74;100.00;96007.06;1028808;28;20045;-51
2021/08/04 01:30:10;;;;;;;7.85;4.22;;;;;;;12.74;100.00;96000.97;1032159;28;20037;-51
2021/08/04 01:30:40;;;;;;;6.82;4.47;;;;;;;12.73;100.00;96001.94;1031594;28;20104;-52
2021/08/04 01:31:12;;;;;;;7.63;4.82;;;;;;;12.75;100.00;96000.03;1019643;29;20390;-51
2021/08/04 01:31:43;;;;;;;8.02;4.47;;;;;;;12.72;100.00;96001.09;1015860;29;20047;-51
2021/08/04 01:32:14;;;;;;;7.93;4.60;;;;;;;12.74;100.00;96001.81;1015987;29;20541;-50
2021/08/04 01:32:45;;;;;;;8.65;5.03;;;;;;;12.76;100.00;96002.56;1019556;29;20112;-51
2021/08/04 01:33:16;;;;;;;9.23;4.20;;;;;;;12.74;100.00;96000.97;1011758;29;20415;-51
2021/08/04 01:33:48;;;;;;;9.48;4.80;;;;;;;12.73;100.00;95996.69;1015412;29;20099;-51
2021/08/04 01:34:19;;;;;;;9.38;4.65;;;;;;;12.74;100.00;96000.97;1023726;29;20023;-51
2021/08/04 01:34:49;;;;;;;6.85;4.30;;;;;;;12.79;100.00;96001.47;1019647;29;20027;-50
2021/08/04 01:35:20;;;;;;;10.40;4.70;;;;;;;12.75;100.00;96006.13;1015681;29;20506;-51
2021/08/04 01:35:51;;;;;;;7.70;4.18;;;;;;;12.76;100.00;96004.31;1019794;29;20410;-50
2021/08/04 01:36:22;;;;;;;7.22;4.47;;;;;;;12.76;100.00;96005.19;1012049;29;20165;-51
2021/08/04 01:36:52;;;;;;;8.77;4.38;;;;;;;12.75;100.00;95998.25;1015722;29;20028;-51
2021/08/04 01:37:23;;;;;;;6.40;4.20;;;;;;;12.70;100.00;95999.56;1015706;29;20079;-51
2021/08/04 01:37:54;;;;;;;8.07;4.68;;;;;;;12.74;100.00;96003.59;1027749;28;20095;-50
2021/08/04 01:38:25;;;;;;;5.45;3.92;;;;;;;12.74;100.00;96003.59;1015882;29;20125;-51
2021/08/04 01:38:57;;;;;;;6.60;3.90;;;;;;;12.76;100.00;95999.94;1019892;29;20028;-51
2021/08/04 01:39:28;;;;;;;7.82;3.70;;;;;;;12.75;100.00;95997.41;1019467;29;20029;-50
2021/08/04 01:39:58;;;;;;;5.88;4.38;;;;;;;12.76;100.00;95999.94;1015877;29;20028;-52
2021/08/04 01:40:29;;;;;;;6.45;3.80;;;;;;;12.74;100.00;96001.81;1019680;29;20585;-51
2021/08/04 01:41:00;;;;;;;8.43;4.68;;;;;;;12.72;100.00;95995.84;1019760;29;20108;-51
2021/08/04 01:41:33;;;;;;;10.82;4.75;;;;;;;12.75;100.00;95995.59;1015773;29;20092;-51
2021/08/04 01:42:04;;;;;;;7.10;4.40;;;;;;;12.72;100.00;95992.38;1019731;29;20023;-51
2021/08/04 01:42:36;;;;;;;6.72;4.63;;;;;;;12.71;100.00;95994.19;1019819;29;20494;-51
2021/08/04 01:43:08;;;;;;;6.20;4.05;;;;;;;12.71;100.00;96001.25;1023449;28;20035;-51
2021/08/04 01:43:39;;;;;;;8.18;4.70;;;;;;;12.72;100.00;95992.38;1027385;28;20019;-51
2021/08/04 01:44:10;;;;;;;8.18;4.53;;;;;;;12.72;100.00;95987.94;1031795;28;20026;-50
2021/08/04 01:44:41;;;;;;;6.95;4.50;;;;;;;12.71;100.00;95988.91;1024552;28;20494;-51
2021/08/04 01:45:11;;;;;;;6.05;4.18;;;;;;;12.74;100.00;95998.34;1027619;28;20458;-51
2021/08/04 01:45:42;;;;;;;6.38;4.65;;;;;;;12.70;100.00;95989.88;1027733;28;20031;-51
2021/08/04 01:46:13;;;;;;;7.95;4.60;;;;;;;12.67;100.00;95987.50;1015898;29;20105;-52
2021/08/04 01:46:44;;;;;;;8.10;5.00;;;;;;;12.67;100.00;95986.63;1015782;29;20418;-50
2021/08/04 01:47:15;;;;;;;7.75;4.75;;;;;;;12.72;100.00;95987.13;1023521;29;20062;-50
2021/08/04 01:47:45;;;;;;;7.53;4.35;;;;;;;12.73;100.00;95992.25;1027521;28;20033;-51
2021/08/04 01:48:16;;;;;;;5.22;4.00;;;;;;;12.72;100.00;95982.69;1023632;29;20023;-51
2021/08/04 01:48:46;;;;;;;5.95;4.30;;;;;;;12.71;100.00;95986.28;1027550;28;20129;-50
2021/08/04 01:49:17;;;;;;;7.30;4.95;;;;;;;12.71;100.00;95985.47;1023772;29;20401;-52
2021/08/04 01:49:47;;;;;;;6.57;4.95;;;;;;;12.76;100.00;95988.53;1015851;29;20555;-51
2021/08/04 01:50:18;;;;;;;10.68;4.75;;;;;;;12.77;100.00;95993.69;1019696;29;20130;-51
2021/08/04 01:50:51;;;;;;;7.68;4.93;;;;;;;12.72;100.00;95992.38;1023680;29;20034;-51
2021/08/04 01:51:22;;;;;;;8.30;4.55;;;;;;;12.74;100.00;95990.47;1015833;29;20023;-51
2021/08/04 01:51:53;;;;;;;8.43;4.88;;;;;;;12.73;100.00;95986.19;1023452;29;20027;-51
2021/08/04 01:52:24;;;;;;;12.15;4.68;;;;;;;12.75;100.00;95992.16;1027552;28;20508;-51
2021/08/04 01:52:55;;;;;;;8.30;4.95;;;;;;;12.74;100.00;95986.03;1023559;29;20031;-51
2021/08/04 01:53:25;;;;;;;9.70;4.60;;;;;;;12.72;100.00;95982.69;1023487;28;20489;-51
2021/08/04 01:53:56;;;;;;;7.88;5.18;;;;;;;12.74;100.00;95988.66;1015194;29;20226;-50
2021/08/04 01:54:27;;;;;;;9.38;4.68;;;;;;;12.73;100.00;95986.19;1019712;29;20256;-50
2021/08/04 01:54:57;;;;;;;7.05;5.05;;;;;;;12.73;100.00;95980.91;1019692;29;20030;-51
2021/08/04 01:55:29;;;;;;;8.65;4.63;;;;;;;12.74;100.00;95990.47;1023904;28;20082;-51
2021/08/04 01:55:59;;;;;;;7.63;4.53;;;;;;;12.76;100.00;95994.66;1023460;28;20133;-51
2021/08/04 01:56:30;;;;;;;9.45;4.47;;;;;;;12.76;100.00;95989.41;1027574;28;20105;-51
2021/08/04 01:57:00;;;;;;;17.42;5.82;;;;;;;12.75;100.00;95994.78;1031368;28;20018;-51
2021/08/04 01:57:31;;;;;;;7.63;5.10;;;;;;;12.75;100.00;95992.97;1027735;28;20481;-51
2021/08/04 01:58:02;;;;;;;10.48;4.80;;;;;;;12.73;100.00;95989.63;1023463;28;20347;-50
2021/08/04 01:58:33;;;;;;;7.85;4.68;;;;;;;12.74;100.00;95988.66;1027638;28;20106;-51
2021/08/04 01:59:03;;;;;;;10.93;4.55;;;;;;;12.75;100.00;95987.72;1027568;28;20473;-51
2021/08/04 01:59:34;;;;;;;7.10;4.95;;;;;;;12.76;100.00;95980.66;1027766;28;20023;-51
2021/08/04 02:00:05;;;;;;;7.95;4.93;;;;;;;12.71;100.00;95985.47;1031513;28;20118;-51
2021/08/04 02:00:36;;;;;;;9.70;5.10;;;;;;;12.72;100.00;95998.47;1027584;28;20006;-51
2021/08/04 02:01:07;;;;;;;10.40;5.20;;;;;;;12.72;100.00;95992.38;1027616;28;20105;-51
2021/08/04 02:01:38;;;;;;;8.57;4.78;;;;;;;12.71;100.00;95994.19;1024179;28;20030;-50
2021/08/04 02:02:17;;;;;;;7.88;4.85;;;;;;;12.73;100.00;95994.91;1023660;28;20019;-51
2021/08/04 02:02:48;;;;;;;8.93;5.18;;;;;;;12.72;100.00;95987.13;1023727;29;20042;-52
2021/08/04 02:03:18;;;;;;;7.72;4.55;;;;;;;12.75;100.00;95986.91;1020957;29;20130;-52
2021/08/04 02:03:49;;;;;;;9.00;4.78;;;;;;;12.75;100.00;95989.53;1021567;28;20106;-51
2021/08/04 02:04:19;;;;;;;9.77;5.10;;;;;;;12.73;100.00;95989.63;1023660;28;20062;-51
2021/08/04 02:04:51;;;;;;;8.45;5.32;;;;;;;12.77;100.00;95993.69;1019598;29;20051;-50
2021/08/04 02:05:22;;;;;;;8.52;5.63;;;;;;;12.80;100.00;95987.34;1027536;28;20121;-50
2021/08/04 02:05:52;;;;;;;8.63;5.45;;;;;;;12.81;100.00;95983.78;1027594;28;20034;-51
2021/08/04 02:06:32;;;;;;;10.48;5.22;;;;;;;12.79;100.00;95985.69;1027474;28;20022;-50
2021/08/04 02:07:04;;;;;;;8.77;5.88;;;;;;;12.81;100.00;95981.16;1022249;29;20026;-51
2021/08/04 02:08:00;;;;;;;9.65;6.15;;;;;;;12.84;100.00;95991.44;1027427;28;20035;-50
2021/08/04 02:08:31;;;;;;;10.15;5.70;;;;;;;12.83;100.00;95989.75;1031439;28;20023;-50
2021/08/04 02:09:03;;;;;;;9.52;4.78;;;;;;;12.76;100.00;95988.53;1035420;28;20030;-51
2021/08/04 02:09:39;;;;;;;9.02;4.70;;;;;;;12.73;100.00;95991.44;1035571;28;20579;-50
2021/08/04 02:10:12;;;;;;;10.52;4.95;;;;;;;12.71;100.00;95988.91;1035820;28;20025;-52
2021/08/04 02:10:47;;;;;;;11.02;4.63;;;;;;;12.73;100.00;95984.38;1027405;28;20031;-50
2021/08/04 02:11:21;;;;;;;10.07;5.32;;;;;;;12.73;100.00;95989.63;1025539;28;20046;-50
2021/08/04 02:12:02;;;;;;;10.35;5.20;;;;;;;12.74;100.00;95988.66;1024144;28;20045;-49
2021/08/04 02:12:38;;;;;;;9.93;5.57;;;;;;;12.73;100.00;95989.63;1020519;29;20085;-52
2021/08/04 02:13:31;;;;;;;13.13;5.75;;;;;;;12.70;100.00;95986.41;1023591;28;20041;-52
2021/08/04 02:14:02;;;;;;;11.68;5.35;;;;;;;12.75;100.00;95987.72;1023405;29;20042;-51
2021/08/04 02:14:51;;;;;;;9.13;5.60;;;;;;;12.74;100.00;95987.84;1027463;28;20389;-50
2021/08/04 02:15:22;;;;;;;11.43;5.55;;;;;;;12.69;100.00;95984.72;1024681;28;20019;-51
2021/08/04 02:16:00;;;;;;;10.85;5.68;;;;;;;12.74;100.00;95985.22;1023780;29;20019;-51
2021/08/04 02:16:34;;;;;;;8.55;4.97;;;;;;;12.65;100.00;95981.53;1023429;29;20011;-50
2021/08/04 02:17:42;;;;;;;8.27;5.30;;;;;;;12.70;100.00;95987.25;1019559;29;20371;-50
2021/08/04 02:18:13;;;;;;;9.80;5.10;;;;;;;12.67;100.00;95986.63;1023645;28;20449;-49
2021/08/04 02:18:46;;;;;;;9.68;5.35;;;;;;;12.68;100.00;95985.69;1028460;28;20077;-51
2021/08/04 02:19:23;;;;;;;8.82;5.28;;;;;;;12.65;100.00;95981.53;1031540;28;20013;-50
2021/08/04 02:19:57;;;;;;;8.43;4.85;;;;;;;12.65;100.00;95981.53;1023619;29;20046;-51
2021/08/04 02:20:35;;;;;;;8.45;5.57;;;;;;;12.60;100.00;95984.50;1015682;29;20048;-51
2021/08/04 02:21:06;;;;;;;10.20;5.18;;;;;;;12.62;100.00;95979.94;1017938;29;20064;-51
2021/08/04 02:21:38;;;;;;;8.55;4.85;;;;;;;12.63;100.00;95991.28;1019696;29;20107;-51
2021/08/04 02:22:13;;;;;;;9.85;5.50;;;;;;;12.63;100.00;95984.25;1018351;29;20023;-51
2021/08/04 02:22:49;;;;;;;17.33;5.25;;;;;;;12.63;100.00;95983.41;1019489;29;20007;-50
2021/08/04 02:23:22;;;;;;;8.32;5.47;;;;;;;12.63;100.00;95993.91;1023501;28;20077;-51
2021/08/04 02:23:53;;;;;;;8.15;5.47;;;;;;;12.64;100.00;95991.19;1015071;29;20047;-51
2021/08/04 02:24:23;;;;;;;8.65;5.30;;;;;;;12.66;100.00;95985.81;1019554;29;20015;-50
2021/08/04 02:25:01;;;;;;;12.75;5.47;;;;;;;12.62;100.00;95984.38;1023431;29;20015;-50
2021/08/04 02:25:53;;;;;;;13.60;5.22;;;;;;;12.61;100.00;95985.31;1021905;28;20024;-51
2021/08/04 02:26:24;;;;;;;6.93;5.03;;;;;;;12.62;100.00;95987.00;1027670;28;20026;-51
2021/08/04 02:26:54;;;;;;;11.88;6.00;;;;;;;12.59;100.00;95984.59;1031370;28;20537;-51
2021/08/04 02:27:26;;;;;;;8.05;5.13;;;;;;;12.59;100.00;95987.25;1030572;28;20500;-50
2021/08/04 02:27:57;;;;;;;8.27;5.22;;;;;;;12.58;100.00;95988.22;1027608;28;20205;-51
2021/08/04 02:28:30;;;;;;;12.05;5.65;;;;;;;12.61;100.00;95987.94;1019536;29;20016;-50
2021/08/04 02:29:01;;;;;;;9.52;5.40;;;;;;;12.64;100.00;95987.72;1015575;29;20016;-52
2021/08/04 02:29:33;;;;;;;10.75;4.88;;;;;;;12.62;100.00;95985.22;1027305;28;20014;-51
2021/08/04 02:30:05;;;;;;;12.27;5.05;;;;;;;12.60;100.00;95987.13;1023599;28;20132;-50
2021/08/04 02:30:36;;;;;;;11.45;5.65;;;;;;;12.58;100.00;95981.16;1019659;29;20480;-51
2021/08/04 02:31:08;;;;;;;9.90;5.28;;;;;;;12.57;100.00;95983.91;1015467;29;20020;-51
2021/08/04 02:31:39;;;;;;;12.43;5.70;;;;;;;12.58;100.00;95983.78;1019647;29;20036;-51
2021/08/04 02:32:10;;;;;;;13.60;6.07;;;;;;;12.61;100.00;95988.81;1015667;29;20497;-51
2021/08/04 02:32:40;;;;;;;11.95;5.43;;;;;;;12.58;100.00;95983.78;1019592;29;20039;-50